createdAt,value
2022-09-28T00:01:25.818Z,14.59
2022-09-28T00:03:59.989Z,14.58
2022-09-28T00:06:30.883Z,14.50
2022-09-28T00:08:59.328Z,14.56
2022-09-28T00:11:29.314Z,14.56
2022-09-28T00:14:02.517Z,14.53
2022-09-28T00:16:34.982Z,14.49
2022-09-28T00:19:05.167Z,14.44
2022-09-28T00:21:37.185Z,14.41
2022-09-28T00:24:15.061Z,14.39
2022-09-28T00:26:52.314Z,14.36
2022-09-28T00:29:29.576Z,14.34
2022-09-28T00:32:17.738Z,14.32
2022-09-28T00:34:46.202Z,14.31
2022-09-28T00:37:16.031Z,14.29
2022-09-28T00:39:44.915Z,14.28
2022-09-28T00:42:16.365Z,14.27
2022-09-28T00:44:51.301Z,14.26
2022-09-28T00:47:46.810Z,14.24
2022-09-28T00:50:18.925Z,14.26
2022-09-28T00:53:11.907Z,14.27
2022-09-28T00:55:49.855Z,14.27
2022-09-28T00:58:30.291Z,14.30
2022-09-28T01:01:00.188Z,14.32
2022-09-28T01:03:29.830Z,14.34
2022-09-28T01:06:00.670Z,14.36
2022-09-28T01:08:31.961Z,14.38
2022-09-28T01:11:01.099Z,14.40
2022-09-28T01:13:31.762Z,14.40
2022-09-28T01:16:14.844Z,14.39
2022-09-28T01:19:22.177Z,14.39
2022-09-28T01:22:21.205Z,14.38
2022-09-28T01:25:00.873Z,14.38
2022-09-28T01:27:34.413Z,14.37
2022-09-28T01:30:08.219Z,14.33
2022-09-28T01:33:12.800Z,14.41
2022-09-28T01:36:00.155Z,14.43
2022-09-28T01:38:46.743Z,14.45
2022-09-28T01:41:18.114Z,14.47
2022-09-28T01:43:54.934Z,14.48
2022-09-28T01:46:44.944Z,14.47
2022-09-28T01:49:58.880Z,14.46
2022-09-28T01:52:36.559Z,14.44
2022-09-28T01:55:21.353Z,14.44
2022-09-28T01:57:54.014Z,14.43
2022-09-28T02:00:25.217Z,14.44
2022-09-28T02:03:02.360Z,14.43
2022-09-28T02:05:55.048Z,14.43
2022-09-28T02:08:44.596Z,14.43
2022-09-28T02:11:19.634Z,14.43
2022-09-28T02:14:05.792Z,14.44
2022-09-28T02:16:40.426Z,14.44
2022-09-28T02:19:16.762Z,14.42
2022-09-28T02:22:08.851Z,14.41
2022-09-28T02:24:59.067Z,14.40
2022-09-28T02:27:58.052Z,14.38
2022-09-28T02:30:26.729Z,14.38
2022-09-28T02:33:02.161Z,14.39
2022-09-28T02:35:30.785Z,14.38
2022-09-28T02:37:59.328Z,14.36
2022-09-28T02:40:34.348Z,14.38
2022-09-28T02:43:13.301Z,14.38
2022-09-28T02:46:13.065Z,14.38
2022-09-28T02:49:30.250Z,14.38
2022-09-28T02:52:29.567Z,14.36
2022-09-28T02:55:18.959Z,14.31
2022-09-28T02:58:21.687Z,14.28
2022-09-28T03:01:43.325Z,14.24
2022-09-28T03:04:24.301Z,14.18
2022-09-28T03:07:32.980Z,14.17
2022-09-28T03:10:19.756Z,14.17
2022-09-28T03:12:49.603Z,14.17
2022-09-28T03:15:30.893Z,14.18
2022-09-28T03:18:00.118Z,14.20
2022-09-28T03:20:30.692Z,14.22
2022-09-28T03:25:47.525Z,14.24
2022-09-28T03:28:16.392Z,14.25
2022-09-28T03:30:44.703Z,14.25
2022-09-28T03:33:13.188Z,14.25
2022-09-28T03:35:41.684Z,14.24
2022-09-28T03:38:10.103Z,14.23
2022-09-28T03:40:39.339Z,14.22
2022-09-28T03:43:07.946Z,14.20
2022-09-28T03:45:36.404Z,14.21
2022-09-28T03:48:04.938Z,14.22
2022-09-28T03:50:35.268Z,14.22
2022-09-28T03:53:04.845Z,14.22
2022-09-28T03:55:33.356Z,14.23
2022-09-28T03:58:01.815Z,14.23
2022-09-28T04:00:31.205Z,14.23
2022-09-28T04:02:59.776Z,14.23
2022-09-28T04:05:29.210Z,14.23
2022-09-28T04:07:58.125Z,14.23
2022-09-28T04:10:26.728Z,14.23
2022-09-28T04:12:57.355Z,14.18
2022-09-28T04:15:26.463Z,14.25
2022-09-28T04:17:55.053Z,14.08
2022-09-28T04:21:09.103Z,14.28
2022-09-28T04:23:44.745Z,14.29
2022-09-28T04:26:25.360Z,14.30
2022-09-28T04:29:12.860Z,14.25
2022-09-28T04:31:47.182Z,14.32
2022-09-28T04:34:23.408Z,14.34
2022-09-28T04:36:51.862Z,14.35
2022-09-28T04:39:20.617Z,14.36
2022-09-28T04:41:57.260Z,14.36
2022-09-28T04:44:25.682Z,14.37
2022-09-28T04:47:04.206Z,14.38
2022-09-28T04:49:35.504Z,14.41
2022-09-28T04:52:17.841Z,14.43
2022-09-28T04:54:48.700Z,14.46
2022-09-28T04:57:17.939Z,14.48
2022-09-28T04:59:46.447Z,14.44
2022-09-28T05:02:15.398Z,14.59
2022-09-28T05:05:02.352Z,14.66
2022-09-28T05:07:46.078Z,14.71
2022-09-28T05:10:14.957Z,14.73
2022-09-28T05:12:43.488Z,14.78
2022-09-28T05:15:12.411Z,14.83
2022-09-28T05:17:40.917Z,14.85
2022-09-28T05:20:21.951Z,14.89
2022-09-28T05:22:50.381Z,14.92
2022-09-28T05:25:19.561Z,14.94
2022-09-28T05:28:43.170Z,14.96
2022-09-28T05:31:37.216Z,15.00
2022-09-28T05:34:20.492Z,15.03
2022-09-28T05:36:49.372Z,15.06
2022-09-28T05:39:19.007Z,15.13
2022-09-28T05:41:47.542Z,15.16
2022-09-28T05:44:16.207Z,15.20
2022-09-28T05:46:44.939Z,15.19
2022-09-28T05:49:13.968Z,15.21
2022-09-28T05:51:42.687Z,15.24
2022-09-28T05:54:11.413Z,15.28
2022-09-28T05:56:42.944Z,15.30
2022-09-28T05:59:12.265Z,15.31
2022-09-28T06:01:40.888Z,15.32
2022-09-28T06:04:11.310Z,15.33
2022-09-28T06:06:40.388Z,15.32
2022-09-28T06:09:09.035Z,15.30
2022-09-28T06:11:46.828Z,15.30
2022-09-28T06:14:24.264Z,15.28
2022-09-28T06:16:52.847Z,15.28
2022-09-28T06:19:21.633Z,15.29
2022-09-28T06:22:30.931Z,15.33
2022-09-28T06:25:07.025Z,15.36
2022-09-28T06:27:36.276Z,15.46
2022-09-28T06:30:05.658Z,15.63
2022-09-28T06:32:34.201Z,15.85
2022-09-28T06:35:02.646Z,16.05
2022-09-28T06:37:33.253Z,16.13
2022-09-28T06:40:03.283Z,16.21
2022-09-28T06:42:32.200Z,16.29
2022-09-28T06:45:26.687Z,16.42
2022-09-28T06:48:23.782Z,16.58
2022-09-28T06:50:52.405Z,16.76
2022-09-28T06:53:29.693Z,16.88
2022-09-28T06:56:02.651Z,17.01
2022-09-28T06:58:32.440Z,17.14
2022-09-28T07:01:02.186Z,17.32
2022-09-28T07:03:35.839Z,17.46
2022-09-28T07:06:04.545Z,17.56
2022-09-28T07:09:04.871Z,17.65
2022-09-28T07:11:46.766Z,17.68
2022-09-28T07:14:48.006Z,17.68
2022-09-28T07:17:17.418Z,17.71
2022-09-28T07:19:45.972Z,17.77
2022-09-28T07:22:18.926Z,17.80
2022-09-28T07:24:49.047Z,17.96
2022-09-28T07:27:37.397Z,17.99
2022-09-28T07:30:17.985Z,17.94
2022-09-28T07:33:07.981Z,17.97
2022-09-28T07:35:55.770Z,18.00
2022-09-28T07:38:30.996Z,18.02
2022-09-28T07:41:11.706Z,18.05
2022-09-28T07:43:45.125Z,18.12
2022-09-28T07:46:13.608Z,18.18
2022-09-28T07:49:11.481Z,18.24
2022-09-28T07:52:28.943Z,18.33
2022-09-28T07:56:07.330Z,18.43
2022-09-28T07:58:43.810Z,18.54
2022-09-28T08:01:55.983Z,18.66
2022-09-28T08:04:25.547Z,18.77
2022-09-28T08:06:53.887Z,18.86
2022-09-28T08:09:22.299Z,18.94
2022-09-28T08:12:59.139Z,19.11
2022-09-28T08:15:52.025Z,19.27
2022-09-28T08:18:27.750Z,19.33
2022-09-28T08:21:14.940Z,19.40
2022-09-28T08:23:43.313Z,19.53
2022-09-28T08:26:15.516Z,19.61
2022-09-28T08:28:47.026Z,19.70
2022-09-28T08:31:36.424Z,19.70
2022-09-28T08:34:46.292Z,19.69
2022-09-28T08:38:14.415Z,19.77
2022-09-28T08:41:17.822Z,19.83
2022-09-28T08:44:49.979Z,19.91
2022-09-28T08:48:04.674Z,20.01
2022-09-28T08:50:57.242Z,20.08
2022-09-28T08:53:46.022Z,20.10
2022-09-28T08:56:40.225Z,20.12
2022-09-28T08:59:22.643Z,20.13
2022-09-28T09:02:04.128Z,20.15
2022-09-28T09:04:34.756Z,20.14
2022-09-28T09:07:42.628Z,20.09
2022-09-28T09:10:50.970Z,20.14
2022-09-28T09:14:27.722Z,20.23
2022-09-28T09:17:29.730Z,20.29
2022-09-28T09:20:51.854Z,20.39
2022-09-28T09:23:57.010Z,20.53
2022-09-28T09:26:40.344Z,20.63
2022-09-28T09:29:50.339Z,20.83
2022-09-28T09:32:56.130Z,20.97
2022-09-28T09:35:52.636Z,21.08
2022-09-28T09:38:43.470Z,21.21
2022-09-28T09:41:52.819Z,21.32
2022-09-28T09:46:14.838Z,21.45
2022-09-28T09:49:46.049Z,21.60
2022-09-28T09:55:14.746Z,21.91
2022-09-28T09:58:10.098Z,22.04
2022-09-28T10:00:51.790Z,22.16
2022-09-28T10:03:34.920Z,22.22
2022-09-28T10:06:28.233Z,22.23
2022-09-28T10:09:11.157Z,22.23
2022-09-28T10:11:52.238Z,22.33
2022-09-28T10:14:27.590Z,22.37
2022-09-28T10:17:13.814Z,22.39
2022-09-28T10:20:00.776Z,22.34
2022-09-28T10:23:02.262Z,22.10
2022-09-28T10:25:36.610Z,21.91
2022-09-28T10:28:16.983Z,21.85
2022-09-28T10:30:45.778Z,22.11
2022-09-28T10:33:35.475Z,22.41
2022-09-28T10:36:07.564Z,22.46
2022-09-28T10:38:36.467Z,22.36
2022-09-28T10:41:13.738Z,22.23
2022-09-28T10:44:19.316Z,22.13
2022-09-28T10:47:10.051Z,22.12
2022-09-28T10:49:47.298Z,22.26
2022-09-28T10:52:40.470Z,22.37
2022-09-28T10:55:33.674Z,22.42
2022-09-28T10:58:48.954Z,22.39
2022-09-28T11:01:33.161Z,22.46
2022-09-28T11:04:08.146Z,22.58
2022-09-28T11:06:41.126Z,22.69
2022-09-28T11:09:31.940Z,22.84
2022-09-28T11:12:07.200Z,23.34
2022-09-28T11:14:42.729Z,23.92
2022-09-28T11:17:29.872Z,24.55
2022-09-28T11:20:27.812Z,24.94
2022-09-28T11:23:18.187Z,25.22
2022-09-28T11:26:06.053Z,25.44
2022-09-28T11:28:38.377Z,25.66
2022-09-28T11:31:14.347Z,25.43
2022-09-28T11:34:17.056Z,24.99
2022-09-28T11:37:31.385Z,24.68
2022-09-28T11:40:29.699Z,24.60
2022-09-28T11:43:19.163Z,24.61
2022-09-28T11:46:18.916Z,24.82
2022-09-28T11:49:05.298Z,25.36
2022-09-28T11:51:37.643Z,25.98
2022-09-28T11:54:22.631Z,26.53
2022-09-28T11:56:53.965Z,27.04
2022-09-28T11:59:50.253Z,27.13
2022-09-28T12:02:38.274Z,27.00
2022-09-28T12:05:52.178Z,26.65
2022-09-28T12:08:32.226Z,26.00
2022-09-28T12:11:22.136Z,25.63
2022-09-28T12:14:41.024Z,25.20
2022-09-28T12:17:11.852Z,24.90
2022-09-28T12:19:51.461Z,24.57
2022-09-28T12:23:08.068Z,24.32
2022-09-28T12:26:06.527Z,24.06
2022-09-28T12:29:13.244Z,23.90
2022-09-28T12:32:01.107Z,23.82
2022-09-28T12:34:29.671Z,24.30
2022-09-28T12:37:16.840Z,24.73
2022-09-28T12:39:57.952Z,24.75
2022-09-28T12:42:55.977Z,24.79
2022-09-28T12:45:53.112Z,24.74
2022-09-28T12:51:54.701Z,24.26
2022-09-28T12:54:39.044Z,24.15
2022-09-28T12:57:26.210Z,23.99
2022-09-28T13:00:00.923Z,23.77
2022-09-28T13:03:03.088Z,23.61
2022-09-28T13:06:17.293Z,23.70
2022-09-28T13:09:10.131Z,24.36
2022-09-28T13:12:13.938Z,25.14
2022-09-28T13:15:10.033Z,26.13
2022-09-28T13:17:53.612Z,26.86
2022-09-28T13:20:41.975Z,26.93
2022-09-28T13:23:40.512Z,26.96
2022-09-28T13:26:23.921Z,27.32
2022-09-28T13:28:57.046Z,27.50
2022-09-28T13:31:33.043Z,27.56
2022-09-28T13:34:04.693Z,26.99
2022-09-28T13:36:37.841Z,26.22
2022-09-28T13:39:37.911Z,25.72
2022-09-28T13:42:09.409Z,25.36
2022-09-28T13:45:12.065Z,25.00
2022-09-28T13:47:52.582Z,24.72
2022-09-28T13:50:48.106Z,24.81
2022-09-28T13:53:54.474Z,25.04
2022-09-28T13:56:45.045Z,25.35
2022-09-28T13:59:28.138Z,25.38
2022-09-28T14:02:22.643Z,25.24
2022-09-28T14:05:02.209Z,25.04
2022-09-28T14:07:36.598Z,24.92
2022-09-28T14:10:08.017Z,24.81
2022-09-28T14:12:36.206Z,24.78
2022-09-28T14:15:30.033Z,24.89
2022-09-28T14:18:25.912Z,24.87
2022-09-28T14:21:03.039Z,24.68
2022-09-28T14:24:03.526Z,24.54
2022-09-28T14:26:47.207Z,24.32
2022-09-28T14:29:28.619Z,24.08
2022-09-28T14:32:20.887Z,23.81
2022-09-28T14:34:59.996Z,23.55
2022-09-28T14:37:54.861Z,23.38
2022-09-28T14:40:50.426Z,23.49
2022-09-28T14:43:34.533Z,23.68
2022-09-28T14:46:27.401Z,23.61
2022-09-28T14:49:17.661Z,23.45
2022-09-28T14:51:51.750Z,23.24
2022-09-28T14:54:26.693Z,23.00
2022-09-28T14:56:57.620Z,22.73
2022-09-28T14:59:36.229Z,22.53
2022-09-28T15:02:10.788Z,22.33
2022-09-28T15:04:50.808Z,22.09
2022-09-28T15:07:42.417Z,21.89
2022-09-28T15:10:33.867Z,21.70
2022-09-28T15:13:06.369Z,21.54
2022-09-28T15:15:39.021Z,21.40
2022-09-28T15:18:16.802Z,21.27
2022-09-28T15:20:51.695Z,21.15
2022-09-28T15:23:44.438Z,21.04
2022-09-28T15:26:34.403Z,20.88
2022-09-28T15:29:05.690Z,20.75
2022-09-28T15:31:36.512Z,20.61
2022-09-28T15:34:23.246Z,20.50
2022-09-28T15:36:56.536Z,20.38
2022-09-28T15:39:34.192Z,20.25
2022-09-28T15:42:04.097Z,20.13
2022-09-28T15:44:37.207Z,20.03
2022-09-28T15:47:16.095Z,19.90
2022-09-28T15:49:57.340Z,19.78
2022-09-28T15:52:36.679Z,19.65
2022-09-28T15:55:17.734Z,19.52
2022-09-28T15:57:50.431Z,19.40
